Terminal Aerodrome Forecast
Issued by NWS

Home | Current Version | Previous Version | Text Only | Print | Product List | Glossary On
Versions: 1 2 3 4 5 6 7 8 9 10 11 12
663
FTAK31 PAJN 222330
TAFAKT
TAF
PAKT 222330Z 2300/2324 VRB06KT P6SM BKN050
     FM231800 12010G15KT 5SM -RA BR FEW010 BKN025 OVC040
      AMD LTD TO CLD VIS AND WIND 2306/2315=

USA.gov is the U.S. government's official web portal to all federal, state and local government web resources and services.